createdAt,value
2018-10-03T00:00:00.765Z,0
2018-10-03T00:01:10.726Z,0
2018-10-03T00:02:20.848Z,0
2018-10-03T00:03:31.008Z,0
2018-10-03T00:04:41.164Z,0
2018-10-03T00:05:51.326Z,0
2018-10-03T00:07:01.482Z,0
2018-10-03T00:08:11.616Z,0
2018-10-03T00:09:21.852Z,0
2018-10-03T00:10:32.010Z,0
2018-10-03T00:11:42.295Z,0
2018-10-03T00:12:52.432Z,0
2018-10-03T00:14:02.568Z,0
2018-10-03T00:15:12.495Z,0
2018-10-03T00:16:22.650Z,0
2018-10-03T00:17:32.848Z,0
2018-10-03T00:18:43.014Z,0
2018-10-03T00:19:53.164Z,0
2018-10-03T00:21:03.284Z,0
2018-10-03T00:22:13.604Z,0
2018-10-03T00:23:23.728Z,0
2018-10-03T00:24:35.020Z,0
2018-10-03T00:25:45.140Z,0
2018-10-03T00:26:55.039Z,0
2018-10-03T00:28:05.477Z,0
2018-10-03T00:29:15.709Z,0
2018-10-03T00:30:25.900Z,0
2018-10-03T00:31:35.797Z,0
2018-10-03T00:32:45.689Z,0
2018-10-03T00:33:55.818Z,0
2018-10-03T00:35:06.217Z,0
2018-10-03T00:36:16.129Z,0
2018-10-03T00:37:26.251Z,0
2018-10-03T00:38:35.964Z,0
2018-10-03T00:39:45.850Z,0
2018-10-03T00:40:55.975Z,0
2018-10-03T00:42:06.109Z,0
2018-10-03T00:43:16.045Z,0
2018-10-03T00:44:25.807Z,0
2018-10-03T00:45:35.938Z,0
2018-10-03T00:46:46.063Z,0
2018-10-03T00:47:55.946Z,0
2018-10-03T00:49:06.073Z,0
2018-10-03T00:50:15.950Z,0
2018-10-03T00:51:26.098Z,0
2018-10-03T00:52:36.242Z,0
2018-10-03T00:53:46.376Z,0
2018-10-03T00:54:56.563Z,0
2018-10-03T00:56:06.764Z,0
2018-10-03T00:57:17.026Z,0
2018-10-03T00:58:27.196Z,0
2018-10-03T00:59:37.343Z,0
2018-10-03T01:00:47.713Z,0
2018-10-03T01:01:57.921Z,0
2018-10-03T01:03:08.110Z,0
2018-10-03T01:04:18.008Z,0
2018-10-03T01:05:28.159Z,0
2018-10-03T01:06:38.394Z,0
2018-10-03T01:07:48.559Z,0
2018-10-03T01:08:58.721Z,0
2018-10-03T01:10:09.143Z,0
2018-10-03T01:11:19.273Z,0
2018-10-03T01:12:29.406Z,0
2018-10-03T01:13:39.179Z,0
2018-10-03T01:14:49.588Z,0
2018-10-03T01:15:59.736Z,0
2018-10-03T01:17:09.889Z,0
2018-10-03T01:18:20.062Z,0
2018-10-03T01:19:30.267Z,0
2018-10-03T01:20:40.431Z,0
2018-10-03T01:21:50.581Z,0
2018-10-03T01:23:00.733Z,0
2018-10-03T01:24:10.841Z,0
2018-10-03T01:25:20.968Z,0
2018-10-03T01:26:31.100Z,0
2018-10-03T01:27:41.001Z,0
2018-10-03T01:28:51.135Z,0
2018-10-03T01:30:01.551Z,0
2018-10-03T01:31:11.677Z,0
2018-10-03T01:32:21.851Z,0
2018-10-03T01:33:32.184Z,0
2018-10-03T01:34:42.049Z,0
2018-10-03T01:35:52.199Z,0
2018-10-03T01:37:02.079Z,0
2018-10-03T01:38:12.432Z,0
2018-10-03T01:39:22.626Z,0
2018-10-03T01:40:32.774Z,0
2018-10-03T01:41:42.659Z,0
2018-10-03T01:42:52.541Z,0
2018-10-03T01:44:02.675Z,0
2018-10-03T01:45:12.790Z,0
2018-10-03T01:46:22.645Z,0
2018-10-03T01:47:32.771Z,0
2018-10-03T01:48:42.900Z,0
2018-10-03T01:49:52.681Z,0
2018-10-03T01:51:02.874Z,0
2018-10-03T01:52:13.097Z,0
2018-10-03T01:53:23.260Z,0
2018-10-03T01:54:33.122Z,0
2018-10-03T01:55:43.278Z,0
2018-10-03T01:56:53.159Z,0
2018-10-03T01:58:03.132Z,0
2018-10-03T01:59:13.313Z,0
2018-10-03T02:00:23.487Z,0
2018-10-03T02:01:33.350Z,0
2018-10-03T02:02:43.177Z,0
2018-10-03T02:03:53.075Z,0
2018-10-03T02:05:03.171Z,0
2018-10-03T02:06:13.332Z,0
2018-10-03T02:07:23.641Z,0
2018-10-03T02:08:33.791Z,0
2018-10-03T02:09:43.769Z,0
2018-10-03T02:10:53.887Z,0
2018-10-03T02:12:04.013Z,0
2018-10-03T02:13:14.187Z,0
2018-10-03T02:14:24.430Z,0
2018-10-03T02:15:34.570Z,0
2018-10-03T02:16:44.461Z,0
2018-10-03T02:17:54.608Z,0
2018-10-03T02:19:04.781Z,0
2018-10-03T02:20:14.923Z,0
2018-10-03T02:21:25.161Z,0
2018-10-03T02:22:35.356Z,0
2018-10-03T02:23:46.709Z,0
2018-10-03T02:24:56.859Z,0
2018-10-03T02:26:06.738Z,0
2018-10-03T02:27:16.884Z,0
2018-10-03T02:28:26.752Z,0
2018-10-03T02:29:36.865Z,0
2018-10-03T02:30:46.725Z,0
2018-10-03T02:31:56.881Z,0
2018-10-03T02:33:07.001Z,0
2018-10-03T02:34:18.165Z,0
2018-10-03T02:35:28.610Z,0
2018-10-03T02:36:38.732Z,0
2018-10-03T02:37:48.850Z,0
2018-10-03T02:38:58.984Z,0
2018-10-03T02:40:09.154Z,0
2018-10-03T02:41:19.317Z,0
2018-10-03T02:42:29.194Z,0
2018-10-03T02:43:39.487Z,0
2018-10-03T02:44:49.681Z,0
2018-10-03T02:45:59.858Z,0
2018-10-03T02:47:10.037Z,0
2018-10-03T02:48:20.258Z,0
2018-10-03T02:49:30.470Z,0
2018-10-03T02:50:40.348Z,0
2018-10-03T02:51:50.521Z,0
2018-10-03T02:53:00.408Z,0
2018-10-03T02:54:10.558Z,0
2018-10-03T02:55:20.678Z,0
2018-10-03T02:56:30.888Z,0
2018-10-03T02:57:41.511Z,0
2018-10-03T02:58:51.631Z,0
2018-10-03T03:00:01.787Z,0
2018-10-03T03:01:11.911Z,0
2018-10-03T03:02:22.224Z,0
2018-10-03T03:03:32.365Z,0
2018-10-03T03:04:42.575Z,0
2018-10-03T03:05:52.810Z,0
2018-10-03T03:07:02.687Z,0
2018-10-03T03:08:12.816Z,0
2018-10-03T03:09:23.213Z,0
2018-10-03T03:10:33.600Z,0
2018-10-03T03:11:43.424Z,0
2018-10-03T03:12:53.576Z,0
2018-10-03T03:14:04.150Z,0
2018-10-03T03:15:14.462Z,0
2018-10-03T03:16:24.731Z,0
2018-10-03T03:17:34.925Z,0
2018-10-03T03:18:45.082Z,0
2018-10-03T03:19:55.236Z,0
2018-10-03T03:21:05.390Z,0
2018-10-03T03:22:15.522Z,0
2018-10-03T03:23:25.659Z,0
2018-10-03T03:24:35.773Z,0
2018-10-03T03:25:46.097Z,0
2018-10-03T03:26:56.361Z,0
2018-10-03T03:28:06.471Z,0
2018-10-03T03:29:16.635Z,0
2018-10-03T03:30:26.854Z,0
2018-10-03T03:31:37.020Z,0
2018-10-03T03:32:47.199Z,0
2018-10-03T03:33:57.388Z,0
2018-10-03T03:35:07.506Z,0
2018-10-03T03:36:17.428Z,0
2018-10-03T03:37:27.781Z,0
2018-10-03T03:38:37.917Z,0
2018-10-03T03:39:48.176Z,0
2018-10-03T03:40:58.376Z,0
2018-10-03T03:42:08.307Z,0
2018-10-03T03:43:18.430Z,0
2018-10-03T03:44:28.641Z,0
2018-10-03T03:45:38.793Z,0
2018-10-03T03:46:48.911Z,0
2018-10-03T03:47:59.108Z,0
2018-10-03T03:49:09.367Z,0
2018-10-03T03:50:19.578Z,0
2018-10-03T03:51:29.741Z,0
2018-10-03T03:52:39.849Z,0
2018-10-03T03:53:49.983Z,0
2018-10-03T03:55:00.108Z,0
2018-10-03T03:56:10.291Z,0
2018-10-03T03:57:20.456Z,0
2018-10-03T03:58:30.729Z,0
2018-10-03T03:59:40.588Z,0
2018-10-03T04:00:51.692Z,0
2018-10-03T04:02:01.567Z,0
2018-10-03T04:03:11.418Z,0
2018-10-03T04:04:20.955Z,0
2018-10-03T04:05:31.096Z,0
2018-10-03T04:06:41.342Z,0
2018-10-03T04:07:51.609Z,0
2018-10-03T04:09:01.739Z,0
2018-10-03T04:10:11.999Z,0
2018-10-03T04:11:22.387Z,0
2018-10-03T04:12:32.533Z,0
2018-10-03T04:13:42.572Z,0
2018-10-03T04:14:52.743Z,0
2018-10-03T04:16:02.963Z,0
2018-10-03T04:17:12.856Z,0
2018-10-03T04:18:23.028Z,0
2018-10-03T04:19:32.541Z,0
2018-10-03T04:20:42.440Z,0
2018-10-03T04:21:53.627Z,0
2018-10-03T04:23:03.553Z,0
2018-10-03T04:24:13.704Z,0
2018-10-03T04:25:23.490Z,0
2018-10-03T04:26:33.613Z,0
2018-10-03T04:27:43.753Z,0
2018-10-03T04:28:53.665Z,0
2018-10-03T04:30:03.840Z,0
2018-10-03T04:31:14.039Z,0
2018-10-03T04:32:24.190Z,0
2018-10-03T04:33:34.443Z,0
2018-10-03T04:34:44.620Z,0
2018-10-03T04:35:54.658Z,0
2018-10-03T04:37:04.778Z,0
2018-10-03T04:38:14.917Z,0
2018-10-03T04:39:25.060Z,0
2018-10-03T04:40:35.013Z,0
2018-10-03T04:41:45.165Z,0
2018-10-03T04:42:55.287Z,0
2018-10-03T04:44:05.453Z,0
2018-10-03T04:45:15.751Z,0
2018-10-03T04:46:25.992Z,4
2018-10-03T04:47:35.854Z,0
2018-10-03T04:48:45.809Z,4
2018-10-03T04:49:56.018Z,4
2018-10-03T04:51:06.125Z,4
2018-10-03T04:52:16.264Z,4
2018-10-03T04:53:26.388Z,4
2018-10-03T04:54:36.547Z,8
2018-10-03T04:55:46.714Z,8
2018-10-03T04:56:56.927Z,12
2018-10-03T04:58:07.103Z,12
2018-10-03T04:59:17.244Z,16
2018-10-03T05:00:27.427Z,20
2018-10-03T05:01:37.278Z,24
2018-10-03T05:02:47.682Z,28
2018-10-03T05:03:57.825Z,36
2018-10-03T05:05:07.953Z,40
2018-10-03T05:06:18.100Z,48
2018-10-03T05:07:28.199Z,56
2018-10-03T05:08:38.335Z,64
2018-10-03T05:09:48.471Z,76
2018-10-03T05:10:58.610Z,88
2018-10-03T05:12:08.861Z,100
2018-10-03T05:13:19.115Z,112
2018-10-03T05:14:29.249Z,128
2018-10-03T05:15:39.463Z,148
2018-10-03T05:16:49.935Z,164
2018-10-03T05:18:00.071Z,184
2018-10-03T05:19:10.211Z,204
2018-10-03T05:20:20.386Z,224
2018-10-03T05:21:30.685Z,244
2018-10-03T05:22:40.813Z,268
2018-10-03T05:23:51.199Z,292
2018-10-03T05:25:01.055Z,316
2018-10-03T05:26:11.181Z,344
2018-10-03T05:27:21.332Z,372
2018-10-03T05:28:31.468Z,400
2018-10-03T05:29:41.329Z,428
2018-10-03T05:30:51.691Z,460
2018-10-03T05:32:01.825Z,488
2018-10-03T05:33:12.113Z,516
2018-10-03T05:34:22.368Z,544
2018-10-03T05:35:32.486Z,572
2018-10-03T05:36:42.605Z,596
2018-10-03T05:37:52.488Z,624
2018-10-03T05:39:03.577Z,652
2018-10-03T05:40:13.706Z,692
2018-10-03T05:41:23.817Z,732
2018-10-03T05:42:34.172Z,776
2018-10-03T05:43:44.306Z,820
2018-10-03T05:44:54.421Z,856
2018-10-03T05:46:04.563Z,892
2018-10-03T05:47:14.720Z,924
2018-10-03T05:48:25.027Z,964
2018-10-03T05:49:35.175Z,1008
2018-10-03T05:50:45.327Z,1048
2018-10-03T05:51:55.581Z,1084
2018-10-03T05:53:05.753Z,1116
2018-10-03T05:54:15.635Z,1144
2018-10-03T05:55:25.749Z,1168
2018-10-03T05:56:35.649Z,1196
2018-10-03T05:57:45.764Z,1220
2018-10-03T05:58:55.928Z,1256
2018-10-03T06:00:06.087Z,1304
2018-10-03T06:01:16.460Z,1344
2018-10-03T06:02:26.583Z,1384
2018-10-03T06:03:36.763Z,1420
2018-10-03T06:04:46.650Z,1400
2018-10-03T06:05:56.781Z,1312
2018-10-03T06:07:06.933Z,1376
2018-10-03T06:08:17.151Z,1444
2018-10-03T06:09:27.476Z,1500
2018-10-03T06:10:37.598Z,1624
2018-10-03T06:11:47.490Z,1652
2018-10-03T06:12:57.043Z,1668
2018-10-03T06:14:06.677Z,1712
2018-10-03T06:15:16.920Z,1808
2018-10-03T06:16:27.128Z,1856
2018-10-03T06:17:37.375Z,1940
2018-10-03T06:18:48.024Z,1844
2018-10-03T06:19:58.246Z,1572
2018-10-03T06:21:08.104Z,1440
2018-10-03T06:22:17.996Z,1412
2018-10-03T06:23:27.659Z,1472
2018-10-03T06:24:37.775Z,1588
2018-10-03T06:25:47.984Z,1708
2018-10-03T06:26:57.847Z,1740
2018-10-03T06:28:07.171Z,1712
2018-10-03T06:29:16.691Z,1784
2018-10-03T06:30:26.542Z,1916
2018-10-03T06:31:36.049Z,2064
2018-10-03T06:32:45.913Z,2152
2018-10-03T06:33:55.780Z,2280
2018-10-03T06:35:05.647Z,2328
2018-10-03T06:36:15.823Z,2308
2018-10-03T06:37:25.967Z,2196
2018-10-03T06:38:36.110Z,2132
2018-10-03T06:39:46.272Z,1956
2018-10-03T06:40:56.150Z,1920
2018-10-03T06:42:06.337Z,1924
2018-10-03T06:43:16.288Z,1956
2018-10-03T06:44:26.458Z,2148
2018-10-03T06:45:36.598Z,2612
2018-10-03T06:46:46.962Z,2584
2018-10-03T06:47:57.237Z,2684
2018-10-03T06:49:07.379Z,2620
2018-10-03T06:50:17.311Z,2988
2018-10-03T06:51:27.490Z,3104
2018-10-03T06:52:37.472Z,3196
2018-10-03T06:53:47.335Z,3276
2018-10-03T06:54:57.520Z,3352
2018-10-03T06:56:07.643Z,3452
2018-10-03T06:57:17.855Z,3620
2018-10-03T06:58:28.018Z,3888
2018-10-03T06:59:38.189Z,3916
2018-10-03T07:00:48.317Z,3824
2018-10-03T07:01:59.677Z,3052
2018-10-03T07:03:09.821Z,3280
2018-10-03T07:04:20.039Z,3504
2018-10-03T07:05:30.194Z,4128
2018-10-03T07:06:40.392Z,4268
2018-10-03T07:07:50.246Z,4340
2018-10-03T07:09:00.633Z,4312
2018-10-03T07:10:10.569Z,2900
2018-10-03T07:11:20.787Z,3956
2018-10-03T07:12:30.983Z,3212
2018-10-03T07:13:41.224Z,4628
2018-10-03T07:14:51.380Z,4784
2018-10-03T07:16:01.551Z,4404
2018-10-03T07:17:11.705Z,5352
2018-10-03T07:18:21.822Z,5764
2018-10-03T07:19:32.023Z,4824
2018-10-03T07:20:42.161Z,5152
2018-10-03T07:21:52.324Z,5356
2018-10-03T07:23:02.461Z,3988
2018-10-03T07:24:12.350Z,3116
2018-10-03T07:25:22.506Z,3384
2018-10-03T07:26:32.732Z,4932
2018-10-03T07:27:42.976Z,5556
2018-10-03T07:28:53.383Z,7132
2018-10-03T07:30:03.717Z,13376
2018-10-03T07:31:13.852Z,15360
2018-10-03T07:32:24.032Z,5268
2018-10-03T07:33:34.241Z,6900
2018-10-03T07:34:44.367Z,6376
2018-10-03T07:35:54.250Z,8084
2018-10-03T07:37:04.376Z,9996
2018-10-03T07:38:14.502Z,8412
2018-10-03T07:39:24.667Z,11324
2018-10-03T07:40:35.035Z,7564
2018-10-03T07:41:45.161Z,7080
2018-10-03T07:42:55.383Z,6212
2018-10-03T07:44:05.946Z,7308
2018-10-03T07:45:15.869Z,9504
2018-10-03T07:46:26.054Z,5568
2018-10-03T07:47:36.191Z,6076
2018-10-03T07:48:46.376Z,7132
2018-10-03T07:49:56.505Z,5784
2018-10-03T07:51:06.644Z,4924
2018-10-03T07:52:16.835Z,5996
2018-10-03T07:53:27.083Z,6964
2018-10-03T07:54:37.292Z,7572
2018-10-03T07:55:47.435Z,4980
2018-10-03T07:56:57.599Z,6192
2018-10-03T07:58:07.749Z,7064
2018-10-03T07:59:18.070Z,6740
2018-10-03T08:00:28.236Z,5312
2018-10-03T08:01:38.435Z,6016
2018-10-03T08:02:48.660Z,7164
2018-10-03T08:03:58.864Z,7644
2018-10-03T08:05:09.102Z,7284
2018-10-03T08:06:19.023Z,8544
2018-10-03T08:07:29.466Z,9856
2018-10-03T08:08:39.741Z,21088
2018-10-03T08:09:49.681Z,11388
2018-10-03T08:11:00.043Z,7740
2018-10-03T08:12:10.384Z,8356
2018-10-03T08:13:20.696Z,8888
2018-10-03T08:14:30.890Z,8608
2018-10-03T08:15:41.072Z,8008
2018-10-03T08:16:51.260Z,6376
2018-10-03T08:18:02.416Z,5716
2018-10-03T08:19:12.673Z,5092
2018-10-03T08:20:22.998Z,5508
2018-10-03T08:21:33.153Z,6960
2018-10-03T08:22:43.354Z,5884
2018-10-03T08:23:53.552Z,6372
2018-10-03T08:25:03.792Z,5420
2018-10-03T08:26:14.109Z,4216
2018-10-03T08:27:24.319Z,4344
2018-10-03T08:28:34.514Z,5916
2018-10-03T08:29:44.751Z,6660
2018-10-03T08:30:55.020Z,7100
2018-10-03T08:32:05.228Z,6436
2018-10-03T08:33:15.829Z,5492
2018-10-03T08:34:24.879Z,4120
2018-10-03T08:35:35.019Z,3708
2018-10-03T08:36:45.231Z,3596
2018-10-03T08:37:55.460Z,3496
2018-10-03T08:39:05.667Z,4156
2018-10-03T08:40:15.628Z,3956
2018-10-03T08:41:26.138Z,4176
2018-10-03T08:42:36.320Z,6108
2018-10-03T08:43:46.124Z,6836
2018-10-03T08:44:56.292Z,5108
2018-10-03T08:46:06.502Z,4768
2018-10-03T08:47:16.703Z,3880
2018-10-03T08:48:26.875Z,4928
2018-10-03T08:49:37.116Z,4324
2018-10-03T08:50:47.306Z,4076
2018-10-03T08:51:57.669Z,4748
2018-10-03T08:53:08.145Z,5092
2018-10-03T08:54:18.530Z,5760
2018-10-03T08:55:28.697Z,6440
2018-10-03T08:56:39.138Z,6128
2018-10-03T08:57:49.305Z,6448
2018-10-03T08:58:59.445Z,6736
2018-10-03T09:00:09.677Z,7536
2018-10-03T09:01:19.908Z,8824
2018-10-03T09:02:30.302Z,7364
2018-10-03T09:03:40.601Z,7444
2018-10-03T09:04:50.294Z,5860
2018-10-03T09:06:00.513Z,4732
2018-10-03T09:07:10.836Z,5436
2018-10-03T09:08:21.157Z,4900
2018-10-03T09:09:31.397Z,3396
2018-10-03T09:10:41.610Z,3440
2018-10-03T09:11:51.792Z,3120
2018-10-03T09:13:02.003Z,3156
2018-10-03T09:14:11.725Z,3976
2018-10-03T09:15:22.057Z,4104
2018-10-03T09:16:32.229Z,4248
2018-10-03T09:17:42.583Z,3640
2018-10-03T09:18:52.974Z,4808
2018-10-03T09:20:04.220Z,4016
2018-10-03T09:21:14.493Z,4320
2018-10-03T09:22:24.791Z,5772
2018-10-03T09:23:34.689Z,5928
2018-10-03T09:24:44.830Z,4876
2018-10-03T09:25:55.227Z,4396
2018-10-03T09:27:05.694Z,5020
2018-10-03T09:28:16.098Z,6276
2018-10-03T09:29:26.504Z,6356
2018-10-03T09:30:36.762Z,6140
2018-10-03T09:31:46.920Z,6104
2018-10-03T09:32:57.077Z,6872
2018-10-03T09:34:07.277Z,9084
2018-10-03T09:35:17.448Z,12488
2018-10-03T09:36:27.374Z,12192
2018-10-03T09:37:37.601Z,10612
2018-10-03T09:38:47.750Z,11252
2018-10-03T09:39:57.931Z,11400
2018-10-03T09:41:08.101Z,10544
2018-10-03T09:42:19.419Z,14016
2018-10-03T09:43:29.702Z,8144
2018-10-03T09:44:40.066Z,8844
2018-10-03T09:45:50.517Z,11168
2018-10-03T09:47:00.726Z,9164
2018-10-03T09:48:10.923Z,8944
2018-10-03T09:49:21.080Z,11464
2018-10-03T09:50:31.255Z,15744
2018-10-03T09:51:41.439Z,51872
2018-10-03T09:52:51.658Z,16928
2018-10-03T09:54:01.551Z,12052
2018-10-03T09:55:11.601Z,8316
2018-10-03T09:56:21.803Z,5700
2018-10-03T09:57:32.005Z,6344
2018-10-03T09:58:42.083Z,6620
2018-10-03T09:59:51.958Z,5756
2018-10-03T10:01:02.492Z,5836
2018-10-03T10:02:12.423Z,7964
2018-10-03T10:03:22.589Z,10128
2018-10-03T10:04:32.748Z,14976
2018-10-03T10:05:43.016Z,60320
2018-10-03T10:06:53.212Z,18624
2018-10-03T10:08:03.416Z,10692
2018-10-03T10:09:13.683Z,6564
2018-10-03T10:10:24.294Z,5036
2018-10-03T10:11:35.303Z,7244
2018-10-03T10:12:46.163Z,7304
2018-10-03T10:13:56.379Z,7464
2018-10-03T10:15:06.546Z,11256
2018-10-03T10:16:16.727Z,7784
2018-10-03T10:17:27.108Z,7920
2018-10-03T10:18:37.391Z,18304
2018-10-03T10:19:47.606Z,14688
2018-10-03T10:20:58.290Z,9540
2018-10-03T10:22:08.492Z,6352
2018-10-03T10:23:18.396Z,3304
2018-10-03T10:24:28.294Z,2368
2018-10-03T10:25:38.531Z,3532
2018-10-03T10:26:48.880Z,5592
2018-10-03T10:27:59.125Z,7924
2018-10-03T10:29:09.407Z,9764
2018-10-03T10:30:19.776Z,7432
2018-10-03T10:31:29.966Z,12220
2018-10-03T10:32:40.683Z,58656
2018-10-03T10:33:51.114Z,55104
2018-10-03T10:35:01.084Z,55712
2018-10-03T10:36:11.290Z,54272
2018-10-03T10:37:21.574Z,52128
2018-10-03T10:38:31.821Z,50624
2018-10-03T10:39:42.056Z,48096
2018-10-03T10:40:52.971Z,52544
2018-10-03T10:42:03.308Z,53728
2018-10-03T10:43:13.584Z,55488
2018-10-03T10:44:23.999Z,26592
2018-10-03T10:45:34.415Z,14912
2018-10-03T10:46:44.879Z,14112
2018-10-03T10:47:55.408Z,12416
2018-10-03T10:49:05.324Z,10892
2018-10-03T10:50:15.896Z,10328
2018-10-03T10:51:26.530Z,14304
2018-10-03T10:52:36.449Z,10760
2018-10-03T10:53:46.656Z,9160
2018-10-03T10:54:56.857Z,10776
2018-10-03T10:56:07.090Z,56640
2018-10-03T10:57:17.268Z,61024
2018-10-03T10:58:27.502Z,15040
2018-10-03T10:59:38.128Z,61824
2018-10-03T11:00:48.628Z,11072
2018-10-03T11:01:58.899Z,9464
2018-10-03T11:03:08.829Z,8864
2018-10-03T11:04:18.817Z,12228
2018-10-03T11:05:29.167Z,18688
2018-10-03T11:06:39.661Z,63712
2018-10-03T11:07:50.111Z,45152
2018-10-03T11:08:59.956Z,57760
2018-10-03T11:10:10.176Z,55232
2018-10-03T11:11:20.639Z,55872
2018-10-03T11:12:30.668Z,14560
2018-10-03T11:13:40.903Z,8196
2018-10-03T11:14:51.337Z,6548
2018-10-03T11:16:01.678Z,4308
2018-10-03T11:17:11.987Z,2800
2018-10-03T11:18:22.184Z,3204
2018-10-03T11:19:32.445Z,4096
2018-10-03T11:20:42.867Z,5764
2018-10-03T11:21:53.294Z,7220
2018-10-03T11:23:03.481Z,8524
2018-10-03T11:24:13.990Z,9364
2018-10-03T11:25:24.023Z,12700
2018-10-03T11:26:34.204Z,22592
2018-10-03T11:27:44.596Z,37632
2018-10-03T11:28:54.945Z,56480
2018-10-03T11:30:04.924Z,47328
2018-10-03T11:31:15.135Z,53472
2018-10-03T11:32:25.488Z,50208
2018-10-03T11:33:35.687Z,48096
2018-10-03T11:34:45.843Z,52032
2018-10-03T11:35:56.062Z,54464
2018-10-03T11:37:06.230Z,50496
2018-10-03T11:38:16.704Z,49504
2018-10-03T11:39:27.026Z,52320
2018-10-03T11:40:37.236Z,49408
2018-10-03T11:41:47.406Z,52256
2018-10-03T11:42:57.611Z,51360
2018-10-03T11:44:07.650Z,42048
2018-10-03T11:45:17.840Z,49408
2018-10-03T11:46:27.830Z,50944
2018-10-03T11:47:38.498Z,51520
2018-10-03T11:48:48.738Z,52160
2018-10-03T11:49:59.040Z,54176
2018-10-03T11:51:09.206Z,47680
2018-10-03T11:52:19.390Z,51712
2018-10-03T11:53:29.641Z,23456
2018-10-03T11:54:39.616Z,16416
2018-10-03T11:55:49.977Z,54880
2018-10-03T11:57:00.290Z,15360
2018-10-03T11:58:10.763Z,42656
2018-10-03T11:59:21.056Z,9788
2018-10-03T12:00:31.328Z,13952
2018-10-03T12:01:41.282Z,15968
2018-10-03T12:02:51.848Z,10468
2018-10-03T12:04:03.488Z,9376
2018-10-03T12:05:13.037Z,11132
2018-10-03T12:06:23.537Z,10420
2018-10-03T12:07:34.127Z,15072
2018-10-03T12:08:44.612Z,12920
2018-10-03T12:09:54.807Z,15264
2018-10-03T12:11:05.077Z,21248
2018-10-03T12:12:15.284Z,21696
2018-10-03T12:13:25.475Z,27648
2018-10-03T12:14:35.754Z,23872
2018-10-03T12:15:45.939Z,25632
2018-10-03T12:16:56.158Z,22688
2018-10-03T12:18:06.452Z,20608
2018-10-03T12:19:17.088Z,22336
2018-10-03T12:20:27.254Z,20448
2018-10-03T12:21:38.464Z,23168
2018-10-03T12:22:48.700Z,16064
2018-10-03T12:23:58.603Z,17504
2018-10-03T12:25:09.026Z,19520
2018-10-03T12:26:19.281Z,16288
2018-10-03T12:27:29.580Z,23776
2018-10-03T12:28:39.844Z,18304
2018-10-03T12:29:50.173Z,50432
2018-10-03T12:31:00.161Z,47456
2018-10-03T12:32:10.402Z,47456
2018-10-03T12:33:20.744Z,44480
2018-10-03T12:34:31.123Z,47648
2018-10-03T12:35:41.350Z,43584
2018-10-03T12:36:51.578Z,44576
2018-10-03T12:38:01.517Z,46016
2018-10-03T12:39:11.855Z,47328
2018-10-03T12:40:21.915Z,45952
2018-10-03T12:41:32.357Z,44224
2018-10-03T12:42:42.356Z,44576
2018-10-03T12:43:52.679Z,47264
2018-10-03T12:45:03.285Z,35616
2018-10-03T12:46:13.565Z,50272
2018-10-03T12:47:23.756Z,52864
2018-10-03T12:48:34.198Z,26560
2018-10-03T12:49:44.441Z,19904
2018-10-03T12:50:54.850Z,19232
2018-10-03T12:52:05.246Z,29248
2018-10-03T12:53:15.072Z,27712
2018-10-03T12:54:25.256Z,16992
2018-10-03T12:55:35.523Z,14976
2018-10-03T12:56:45.776Z,10176
2018-10-03T12:57:56.414Z,9352
2018-10-03T12:59:06.602Z,11332
2018-10-03T13:00:16.811Z,4492
2018-10-03T13:01:27.639Z,2372
2018-10-03T13:02:37.813Z,2452
2018-10-03T13:03:48.019Z,2452
2018-10-03T13:04:58.296Z,2728
2018-10-03T13:06:08.583Z,3236
2018-10-03T13:07:18.824Z,3500
2018-10-03T13:08:28.997Z,4316
2018-10-03T13:09:39.165Z,5604
2018-10-03T13:10:49.369Z,6776
2018-10-03T13:11:59.306Z,7356
2018-10-03T13:13:09.167Z,8408
2018-10-03T13:14:19.782Z,10524
2018-10-03T13:15:29.622Z,11452
2018-10-03T13:16:39.964Z,10780
2018-10-03T13:17:51.251Z,10072
2018-10-03T13:19:01.517Z,8952
2018-10-03T13:20:11.544Z,8972
2018-10-03T13:21:21.763Z,11308
2018-10-03T13:22:31.963Z,16224
2018-10-03T13:23:42.284Z,28480
2018-10-03T13:24:52.478Z,39232
2018-10-03T13:26:02.727Z,10056
2018-10-03T13:27:12.984Z,14368
2018-10-03T13:28:23.199Z,8752
2018-10-03T13:29:33.390Z,40800
2018-10-03T13:30:43.885Z,10680
2018-10-03T13:31:54.340Z,7208
2018-10-03T13:33:04.259Z,7828
2018-10-03T13:34:14.453Z,8288
2018-10-03T13:35:24.640Z,9608
2018-10-03T13:36:34.905Z,11296
2018-10-03T13:37:45.177Z,12108
2018-10-03T13:38:55.505Z,18368
2018-10-03T13:40:05.735Z,12240
2018-10-03T13:41:15.974Z,10336
2018-10-03T13:42:26.438Z,8656
2018-10-03T13:43:36.667Z,7008
2018-10-03T13:44:46.837Z,5052
2018-10-03T13:45:57.066Z,3268
2018-10-03T13:47:07.293Z,2596
2018-10-03T13:48:17.475Z,7664
2018-10-03T13:49:27.736Z,4564
2018-10-03T13:50:37.896Z,3632
2018-10-03T13:51:48.095Z,7472
2018-10-03T13:52:58.318Z,12520
2018-10-03T13:54:08.117Z,10312
2018-10-03T13:55:17.999Z,8780
2018-10-03T13:56:28.477Z,6564
2018-10-03T13:57:38.872Z,4828
2018-10-03T13:58:49.340Z,3568
2018-10-03T13:59:59.561Z,2632
2018-10-03T14:01:09.266Z,1548
2018-10-03T14:02:19.491Z,1052
2018-10-03T14:03:29.699Z,1240
2018-10-03T14:04:40.069Z,1784
2018-10-03T14:05:50.108Z,2308
2018-10-03T14:07:00.492Z,2908
2018-10-03T14:08:10.696Z,3896
2018-10-03T14:09:20.888Z,5004
2018-10-03T14:10:30.807Z,7100
2018-10-03T14:11:40.901Z,14016
2018-10-03T14:12:51.061Z,36128
2018-10-03T14:14:01.237Z,39584
2018-10-03T14:15:11.176Z,38880
2018-10-03T14:16:21.359Z,20576
2018-10-03T14:17:31.548Z,12528
2018-10-03T14:18:42.489Z,11236
2018-10-03T14:19:52.825Z,28416
2018-10-03T14:21:02.736Z,27872
2018-10-03T14:22:12.988Z,29216
2018-10-03T14:23:22.790Z,28960
2018-10-03T14:24:34.342Z,29536
2018-10-03T14:25:44.542Z,27872
2018-10-03T14:26:54.963Z,24768
2018-10-03T14:28:05.000Z,24704
2018-10-03T14:29:14.960Z,11724
2018-10-03T14:30:25.274Z,21920
2018-10-03T14:31:35.515Z,22560
2018-10-03T14:32:46.815Z,23872
2018-10-03T14:33:58.290Z,20000
2018-10-03T14:35:08.736Z,20896
2018-10-03T14:36:19.941Z,5584
2018-10-03T14:37:30.123Z,4804
2018-10-03T14:38:40.361Z,4188
2018-10-03T14:39:51.348Z,3816
2018-10-03T14:41:01.482Z,4812
2018-10-03T14:42:11.654Z,4216
2018-10-03T14:43:22.078Z,4144
2018-10-03T14:44:32.407Z,3304
2018-10-03T14:45:42.666Z,2820
2018-10-03T14:46:53.078Z,2116
2018-10-03T14:48:03.269Z,2260
2018-10-03T14:49:13.463Z,2688
2018-10-03T14:50:23.436Z,2156
2018-10-03T14:51:33.676Z,1692
2018-10-03T14:52:44.611Z,1348
2018-10-03T14:53:54.791Z,1264
2018-10-03T14:55:04.623Z,1596
2018-10-03T14:56:14.851Z,2700
2018-10-03T14:57:25.492Z,4252
2018-10-03T14:58:36.121Z,5352
2018-10-03T14:59:46.672Z,5292
2018-10-03T15:00:56.950Z,4880
2018-10-03T15:02:07.146Z,4336
2018-10-03T15:03:17.334Z,2912
2018-10-03T15:04:27.534Z,2280
2018-10-03T15:05:37.793Z,2852
2018-10-03T15:06:47.724Z,2848
2018-10-03T15:07:57.905Z,2404
2018-10-03T15:09:08.070Z,2648
2018-10-03T15:10:18.325Z,3260
2018-10-03T15:11:28.728Z,3820
2018-10-03T15:12:39.873Z,4616
2018-10-03T15:13:50.185Z,4312
2018-10-03T15:15:00.346Z,3148
2018-10-03T15:16:10.513Z,2732
2018-10-03T15:17:20.728Z,2800
2018-10-03T15:18:30.436Z,3224
2018-10-03T15:19:40.711Z,3632
2018-10-03T15:20:50.538Z,4456
2018-10-03T15:22:00.768Z,5060
2018-10-03T15:23:11.292Z,5296
2018-10-03T15:24:21.087Z,8696
2018-10-03T15:25:31.128Z,14784
2018-10-03T15:26:41.359Z,13952
2018-10-03T15:27:51.536Z,13408
2018-10-03T15:29:01.841Z,12448
2018-10-03T15:30:12.318Z,10860
2018-10-03T15:31:22.747Z,5812
2018-10-03T15:32:33.010Z,3856
2018-10-03T15:33:42.877Z,3588
2018-10-03T15:34:53.108Z,3344
2018-10-03T15:36:03.300Z,3112
2018-10-03T15:37:13.565Z,2884
2018-10-03T15:38:23.790Z,2780
2018-10-03T15:39:34.064Z,2780
2018-10-03T15:40:44.312Z,2716
2018-10-03T15:41:54.490Z,2616
2018-10-03T15:43:04.995Z,2496
2018-10-03T15:44:15.184Z,2392
2018-10-03T15:45:25.413Z,2296
2018-10-03T15:46:35.635Z,2228
2018-10-03T15:47:45.869Z,2176
2018-10-03T15:48:56.124Z,2128
2018-10-03T15:50:06.511Z,2096
2018-10-03T15:51:16.511Z,2092
2018-10-03T15:52:26.474Z,2076
2018-10-03T15:53:36.634Z,2068
2018-10-03T15:54:46.553Z,2064
2018-10-03T15:55:56.629Z,2060
2018-10-03T15:57:06.785Z,2072
2018-10-03T15:58:17.031Z,2052